METAR Data
IDs: Format: Raw Decoded Include TAF

Data at: 0200 UTC 16 Jan 2019

METAR for:PADU (Dutch Harbor/Madsen, AK, US)
Text:PADU 160156Z 28007KT 10SM FEW015 BKN020 OVC026 03/01 A2952 RMK AO2 RAB07E55SNB25E33 SLP000 P0001 T00280006
Temperature: 2.8°C ( 37°F)
Dewpoint: 0.6°C ( 33°F) [RH = 85%]
Pressure (altimeter):29.52 inches Hg ( 999.7 mb) [Sea level pressure: 1000.0 mb]
Winds:from the W (280 degrees) at 8 MPH (7 knots; 3.6 m/s)
Visibility:10 or more sm (16+ km)
Ceiling:2000 feet AGL
Clouds: few clouds at 1500 feet AGL, broken clouds at 2000 feet AGL, overcast cloud deck at 2600 feet AGL
Text:PADU 160056Z 28005KT 10SM BKN016 BKN024 03/00 A2950 RMK AO2 RAE15SNE00 SLP995 P0000 T00330000
Temperature: 3.3°C ( 38°F)
Dewpoint: 0.0°C ( 32°F) [RH = 79%]
Pressure (altimeter):29.50 inches Hg ( 999.1 mb) [Sea level pressure: 999.5 mb]
Winds:from the W (280 degrees) at 6 MPH (5 knots; 2.6 m/s)
Visibility:10 or more sm (16+ km)
Ceiling:1600 feet AGL
Clouds: broken clouds at 1600 feet AGL, broken clouds at 2400 feet AGL
Text:PADU 152356Z 29004KT 9SM -SNRA SCT015 BKN028 BKN034 03/00 A2949 RMK AO2 RAB08SNB26 SLP992 P0000 60000 T00280000 10039 20017 53007
Temperature: 2.8°C ( 37°F)
Dewpoint: 0.0°C ( 32°F) [RH = 82%]
Pressure (altimeter):29.49 inches Hg ( 998.7 mb) [Sea level pressure: 999.2 mb]
Winds:from the WNW (290 degrees) at 5 MPH (4 knots; 2.1 m/s)
Visibility: 9 sm ( 14 km)
Ceiling:2800 feet AGL
Clouds: scattered clouds at 1500 feet AGL, broken clouds at 2800 feet AGL, broken clouds at 3400 feet AGL
Weather:-SN -RA (light snow, light rain)
Text:PADU 152256Z 23005KT 10SM BKN021 03/00 A2948 RMK AO2 SLP987 T00330000
Temperature: 3.3°C ( 38°F)
Dewpoint: 0.0°C ( 32°F) [RH = 79%]
Pressure (altimeter):29.48 inches Hg ( 998.4 mb) [Sea level pressure: 998.7 mb]
Winds:from the SW (230 degrees) at 6 MPH (5 knots; 2.6 m/s)
Visibility:10 or more sm (16+ km)
Ceiling:2100 feet AGL
Clouds: broken clouds at 2100 feet AGL
Text:PADU 152253Z 22005KT 10SM BKN021 03/00 A2948 RMK AO2
Temperature: 3.0°C ( 37°F)
Dewpoint: 0.0°C ( 32°F) [RH = 81%]
Pressure (altimeter):29.48 inches Hg ( 998.4 mb)
Winds:from the SW (220 degrees) at 6 MPH (5 knots; 2.6 m/s)
Visibility:10 or more sm (16+ km)
Ceiling:2100 feet AGL
Clouds: broken clouds at 2100 feet AGL
Text:PADU 152156Z 00000KT 10SM BKN039 03/M01 A2947 RMK AO2 SLP985 T00331011
Temperature: 3.3°C ( 38°F)
Dewpoint: -1.1°C ( 30°F) [RH = 73%]
Pressure (altimeter):29.47 inches Hg ( 998.1 mb) [Sea level pressure: 998.5 mb]
Winds:calm
Visibility:10 or more sm (16+ km)
Ceiling:3900 feet AGL
Clouds: broken clouds at 3900 feet AGL
Text:PADU 152056Z 16003KT 10SM FEW044 03/M02 A2946 RMK AO2 SLP981 T00281017 51019
Temperature: 2.8°C ( 37°F)
Dewpoint: -1.7°C ( 29°F) [RH = 72%]
Pressure (altimeter):29.46 inches Hg ( 997.7 mb) [Sea level pressure: 998.1 mb]
Winds:from the SSE (160 degrees) at 3 MPH (3 knots; 1.5 m/s)
Visibility:10 or more sm (16+ km)
Ceiling:at least 12,000 feet AGL
Clouds: few clouds at 4400 feet AGL

TAF for:PADU (Dutch Harbor/Madsen, AK, US) issued at 2350 UTC 15 Jan 2019
Text:PADU 152350Z 1600/1624 32005KT P6SM BKN020
Forecast period:0000 to 0900 UTC 16 January 2019
Forecast type:FROM: standard forecast or significant change
Winds:from the NW (320 degrees) at 6 MPH (5 knots; 2.6 m/s)
Visibility:6 or more sm (10+ km)
Ceiling:2000 feet AGL
Clouds: broken clouds at 2000 feet AGL
Text:TEMPO 1602/1606 31010G18KT 5SM -SHRASN BKN015
Forecast period:0200 to 0600 UTC 16 January 2019
Forecast type:TEMPORARY: The following changes expected for less than half the time period
Winds:from the NW (310 degrees) at 12 MPH (10 knots; 5.1 m/s) gusting to 21 MPH (18 knots; 9.3 m/s)
Visibility: 5 sm ( 8 km)
Ceiling:1500 feet AGL
Clouds: broken clouds at 1500 feet AGL
Weather:-SHRA -SHSN (light rain showers, light snow showers)
Text:FM160900 31012G22KT 5SM -SHSN BKN015
Forecast period:0900 UTC 16 January 2019 to 0000 UTC 17 January 2019
Forecast type:FROM: standard forecast or significant change
Winds:from the NW (310 degrees) at 14 MPH (12 knots; 6.2 m/s) gusting to 25 MPH (22 knots; 11.3 m/s)
Visibility: 5 sm ( 8 km)
Ceiling:1500 feet AGL
Clouds: broken clouds at 1500 feet AGL
Weather:-SHSN (light snow showers)